sensor_id;sensor_type;location;lat;lon;timestamp;temperature;humidity
45060;DHT22;30799;49.060;9.312;2023-02-01T00:01:30;20.70;54.50
45060;DHT22;30799;49.060;9.312;2023-02-01T00:03:56;20.70;54.30
45060;DHT22;30799;49.060;9.312;2023-02-01T00:06:23;20.70;54.30
45060;DHT22;30799;49.060;9.312;2023-02-01T00:08:53;20.70;54.20
45060;DHT22;30799;49.060;9.312;2023-02-01T00:11:21;20.70;54.30
45060;DHT22;30799;49.060;9.312;2023-02-01T00:13:48;20.70;54.20
45060;DHT22;30799;49.060;9.312;2023-02-01T00:16:19;20.70;54.20
45060;DHT22;30799;49.060;9.312;2023-02-01T00:18:49;20.70;54.20
45060;DHT22;30799;49.060;9.312;2023-02-01T00:21:19;20.70;54.10
45060;DHT22;30799;49.060;9.312;2023-02-01T00:23:46;20.70;54.20
45060;DHT22;30799;49.060;9.312;2023-02-01T00:26:16;20.70;54.20
45060;DHT22;30799;49.060;9.312;2023-02-01T00:28:43;20.70;54.10
45060;DHT22;30799;49.060;9.312;2023-02-01T00:31:10;20.70;54.10
45060;DHT22;30799;49.060;9.312;2023-02-01T00:33:37;20.70;54.00
45060;DHT22;30799;49.060;9.312;2023-02-01T00:36:06;20.70;54.10
45060;DHT22;30799;49.060;9.312;2023-02-01T00:38:36;20.70;54.00
45060;DHT22;30799;49.060;9.312;2023-02-01T00:41:04;20.70;54.10
45060;DHT22;30799;49.060;9.312;2023-02-01T00:43:33;20.70;54.00
45060;DHT22;30799;49.060;9.312;2023-02-01T00:46:00;20.70;53.90
45060;DHT22;30799;49.060;9.312;2023-02-01T00:48:27;20.70;54.00
45060;DHT22;30799;49.060;9.312;2023-02-01T00:50:54;20.70;54.00
45060;DHT22;30799;49.060;9.312;2023-02-01T00:53:21;20.70;53.90
45060;DHT22;30799;49.060;9.312;2023-02-01T00:55:48;20.70;53.90
45060;DHT22;30799;49.060;9.312;2023-02-01T00:58:14;20.70;53.80
45060;DHT22;30799;49.060;9.312;2023-02-01T01:00:41;20.70;53.90
45060;DHT22;30799;49.060;9.312;2023-02-01T01:03:08;20.70;53.80
45060;DHT22;30799;49.060;9.312;2023-02-01T01:05:47;20.70;53.80
45060;DHT22;30799;49.060;9.312;2023-02-01T01:08:15;20.70;53.80
45060;DHT22;30799;49.060;9.312;2023-02-01T01:10:42;20.70;53.80
45060;DHT22;30799;49.060;9.312;2023-02-01T01:13:10;20.70;53.70
45060;DHT22;30799;49.060;9.312;2023-02-01T01:15:38;20.70;53.80
45060;DHT22;30799;49.060;9.312;2023-02-01T01:18:06;20.70;53.70
45060;DHT22;30799;49.060;9.312;2023-02-01T01:20:37;20.70;53.70
45060;DHT22;30799;49.060;9.312;2023-02-01T01:23:05;20.70;53.70
45060;DHT22;30799;49.060;9.312;2023-02-01T01:25:32;20.80;53.70
45060;DHT22;30799;49.060;9.312;2023-02-01T01:27:59;20.70;53.70
45060;DHT22;30799;49.060;9.312;2023-02-01T01:30:25;20.70;53.60
45060;DHT22;30799;49.060;9.312;2023-02-01T01:32:52;20.70;53.70
45060;DHT22;30799;49.060;9.312;2023-02-01T01:35:19;20.80;53.70
45060;DHT22;30799;49.060;9.312;2023-02-01T01:37:45;20.70;53.60
45060;DHT22;30799;49.060;9.312;2023-02-01T01:40:12;20.70;53.50
45060;DHT22;30799;49.060;9.312;2023-02-01T01:42:40;20.70;53.50
45060;DHT22;30799;49.060;9.312;2023-02-01T01:45:20;20.70;53.40
45060;DHT22;30799;49.060;9.312;2023-02-01T01:47:51;20.70;54.00
45060;DHT22;30799;49.060;9.312;2023-02-01T01:51:02;20.70;53.40
45060;DHT22;30799;49.060;9.312;2023-02-01T01:53:12;20.70;53.30
45060;DHT22;30799;49.060;9.312;2023-02-01T01:55:41;20.80;54.00
45060;DHT22;30799;49.060;9.312;2023-02-01T01:58:17;20.70;53.90
45060;DHT22;30799;49.060;9.312;2023-02-01T02:00:46;20.80;53.30
45060;DHT22;30799;49.060;9.312;2023-02-01T02:03:27;20.70;53.30
45060;DHT22;30799;49.060;9.312;2023-02-01T02:05:57;20.70;53.20
45060;DHT22;30799;49.060;9.312;2023-02-01T02:08:26;20.70;53.10
45060;DHT22;30799;49.060;9.312;2023-02-01T02:10:53;20.70;53.20
45060;DHT22;30799;49.060;9.312;2023-02-01T02:13:33;20.80;53.20
45060;DHT22;30799;49.060;9.312;2023-02-01T02:26:56;20.80;53.20
45060;DHT22;30799;49.060;9.312;2023-02-01T02:30:00;20.80;53.10
45060;DHT22;30799;49.060;9.312;2023-02-01T02:32:55;20.80;53.00
45060;DHT22;30799;49.060;9.312;2023-02-01T02:35:33;20.80;53.70
45060;DHT22;30799;49.060;9.312;2023-02-01T02:38:23;20.80;53.00
45060;DHT22;30799;49.060;9.312;2023-02-01T02:43:39;20.80;53.00
45060;DHT22;30799;49.060;9.312;2023-02-01T02:46:40;20.80;53.00
45060;DHT22;30799;49.060;9.312;2023-02-01T02:53:02;20.80;53.00
45060;DHT22;30799;49.060;9.312;2023-02-01T02:55:50;20.80;52.80
45060;DHT22;30799;49.060;9.312;2023-02-01T02:58:18;20.80;52.90
45060;DHT22;30799;49.060;9.312;2023-02-01T03:01:04;20.80;52.80
45060;DHT22;30799;49.060;9.312;2023-02-01T03:03:50;20.80;52.80
45060;DHT22;30799;49.060;9.312;2023-02-01T03:06:35;20.80;52.80
45060;DHT22;30799;49.060;9.312;2023-02-01T03:09:07;20.80;52.80
45060;DHT22;30799;49.060;9.312;2023-02-01T03:11:35;20.80;52.70
45060;DHT22;30799;49.060;9.312;2023-02-01T03:14:22;20.80;52.80
45060;DHT22;30799;49.060;9.312;2023-02-01T03:16:56;20.80;52.80
45060;DHT22;30799;49.060;9.312;2023-02-01T03:19:26;20.80;52.80
45060;DHT22;30799;49.060;9.312;2023-02-01T03:22:13;20.80;52.70
45060;DHT22;30799;49.060;9.312;2023-02-01T03:24:56;20.80;52.70
45060;DHT22;30799;49.060;9.312;2023-02-01T03:27:43;20.80;52.70
45060;DHT22;30799;49.060;9.312;2023-02-01T03:30:27;20.80;52.70
45060;DHT22;30799;49.060;9.312;2023-02-01T03:32:59;20.80;52.70
45060;DHT22;30799;49.060;9.312;2023-02-01T03:38:26;20.80;52.60
45060;DHT22;30799;49.060;9.312;2023-02-01T03:41:22;20.80;52.70
45060;DHT22;30799;49.060;9.312;2023-02-01T03:46:37;20.80;52.60
45060;DHT22;30799;49.060;9.312;2023-02-01T03:49:08;20.80;52.60
45060;DHT22;30799;49.060;9.312;2023-02-01T03:51:37;20.80;52.60
45060;DHT22;30799;49.060;9.312;2023-02-01T03:54:07;20.80;52.60
45060;DHT22;30799;49.060;9.312;2023-02-01T03:56:38;20.80;52.60
45060;DHT22;30799;49.060;9.312;2023-02-01T03:59:07;20.80;52.60
45060;DHT22;30799;49.060;9.312;2023-02-01T04:01:34;20.80;52.50
45060;DHT22;30799;49.060;9.312;2023-02-01T04:04:01;20.80;53.10
45060;DHT22;30799;49.060;9.312;2023-02-01T04:06:28;20.80;52.50
45060;DHT22;30799;49.060;9.312;2023-02-01T04:08:54;20.80;52.50
45060;DHT22;30799;49.060;9.312;2023-02-01T04:11:21;20.80;52.40
45060;DHT22;30799;49.060;9.312;2023-02-01T04:13:48;20.80;52.40
45060;DHT22;30799;49.060;9.312;2023-02-01T04:16:14;20.80;52.40
45060;DHT22;30799;49.060;9.312;2023-02-01T04:18:41;20.80;52.40
45060;DHT22;30799;49.060;9.312;2023-02-01T04:21:07;20.80;52.40
45060;DHT22;30799;49.060;9.312;2023-02-01T04:23:34;20.80;52.40
45060;DHT22;30799;49.060;9.312;2023-02-01T04:26:03;20.80;52.40
45060;DHT22;30799;49.060;9.312;2023-02-01T04:28:31;20.80;52.40
45060;DHT22;30799;49.060;9.312;2023-02-01T04:30:57;20.80;52.30
45060;DHT22;30799;49.060;9.312;2023-02-01T04:33:25;20.80;52.30
45060;DHT22;30799;49.060;9.312;2023-02-01T04:35:51;20.80;52.30
45060;DHT22;30799;49.060;9.312;2023-02-01T04:38:18;20.80;52.30
45060;DHT22;30799;49.060;9.312;2023-02-01T04:40:47;20.80;52.30
45060;DHT22;30799;49.060;9.312;2023-02-01T04:43:14;20.80;52.30
45060;DHT22;30799;49.060;9.312;2023-02-01T04:45:40;20.80;52.30
45060;DHT22;30799;49.060;9.312;2023-02-01T04:48:07;20.80;52.20
45060;DHT22;30799;49.060;9.312;2023-02-01T04:50:35;20.80;52.30
45060;DHT22;30799;49.060;9.312;2023-02-01T04:53:01;20.80;52.20
45060;DHT22;30799;49.060;9.312;2023-02-01T04:55:28;20.90;52.30
45060;DHT22;30799;49.060;9.312;2023-02-01T04:57:55;20.80;52.20
45060;DHT22;30799;49.060;9.312;2023-02-01T05:00:23;20.90;52.20
45060;DHT22;30799;49.060;9.312;2023-02-01T05:02:50;20.90;52.20
45060;DHT22;30799;49.060;9.312;2023-02-01T05:05:16;20.90;52.20
45060;DHT22;30799;49.060;9.312;2023-02-01T05:07:43;20.90;52.20
45060;DHT22;30799;49.060;9.312;2023-02-01T05:10:10;20.90;52.20
45060;DHT22;30799;49.060;9.312;2023-02-01T05:12:37;20.90;52.20
45060;DHT22;30799;49.060;9.312;2023-02-01T05:15:22;20.90;52.20
45060;DHT22;30799;49.060;9.312;2023-02-01T05:17:49;20.90;52.20
45060;DHT22;30799;49.060;9.312;2023-02-01T05:20:16;20.90;52.20
45060;DHT22;30799;49.060;9.312;2023-02-01T05:22:42;20.90;52.10
45060;DHT22;30799;49.060;9.312;2023-02-01T05:25:09;20.90;52.10
45060;DHT22;30799;49.060;9.312;2023-02-01T05:27:35;20.90;52.10
45060;DHT22;30799;49.060;9.312;2023-02-01T05:30:04;20.80;52.10
45060;DHT22;30799;49.060;9.312;2023-02-01T05:32:31;20.90;52.10
45060;DHT22;30799;49.060;9.312;2023-02-01T05:34:57;20.90;52.10
45060;DHT22;30799;49.060;9.312;2023-02-01T05:37:24;20.90;52.10
45060;DHT22;30799;49.060;9.312;2023-02-01T05:39:51;20.90;52.10
45060;DHT22;30799;49.060;9.312;2023-02-01T05:42:18;20.90;52.10
45060;DHT22;30799;49.060;9.312;2023-02-01T05:44:44;20.90;52.10
45060;DHT22;30799;49.060;9.312;2023-02-01T05:47:11;20.90;52.00
45060;DHT22;30799;49.060;9.312;2023-02-01T05:49:39;20.90;52.00
45060;DHT22;30799;49.060;9.312;2023-02-01T05:52:05;20.90;52.00
45060;DHT22;30799;49.060;9.312;2023-02-01T05:54:32;20.90;52.00
45060;DHT22;30799;49.060;9.312;2023-02-01T05:56:58;20.90;52.10
45060;DHT22;30799;49.060;9.312;2023-02-01T05:59:25;20.90;52.70
45060;DHT22;30799;49.060;9.312;2023-02-01T06:01:52;20.90;52.90
45060;DHT22;30799;49.060;9.312;2023-02-01T06:04:18;20.90;53.00
45060;DHT22;30799;49.060;9.312;2023-02-01T06:06:45;20.90;53.30
45060;DHT22;30799;49.060;9.312;2023-02-01T06:09:12;20.90;53.50
45060;DHT22;30799;49.060;9.312;2023-02-01T06:11:39;20.90;53.80
45060;DHT22;30799;49.060;9.312;2023-02-01T06:14:06;20.90;54.10
45060;DHT22;30799;49.060;9.312;2023-02-01T06:16:34;20.90;53.90
45060;DHT22;30799;49.060;9.312;2023-02-01T06:19:01;20.90;54.20
45060;DHT22;30799;49.060;9.312;2023-02-01T06:21:27;20.90;54.20
45060;DHT22;30799;49.060;9.312;2023-02-01T06:23:54;20.90;54.40
45060;DHT22;30799;49.060;9.312;2023-02-01T06:26:21;20.90;54.30
45060;DHT22;30799;49.060;9.312;2023-02-01T06:28:49;20.90;54.40
45060;DHT22;30799;49.060;9.312;2023-02-01T06:31:16;21.00;54.10
45060;DHT22;30799;49.060;9.312;2023-02-01T06:33:43;21.00;54.30
45060;DHT22;30799;49.060;9.312;2023-02-01T06:36:10;21.00;54.50
45060;DHT22;30799;49.060;9.312;2023-02-01T06:38:38;21.00;54.50
45060;DHT22;30799;49.060;9.312;2023-02-01T06:41:05;21.10;54.50
45060;DHT22;30799;49.060;9.312;2023-02-01T06:43:32;21.10;54.70
45060;DHT22;30799;49.060;9.312;2023-02-01T06:46:01;21.00;55.30
45060;DHT22;30799;49.060;9.312;2023-02-01T06:48:28;20.90;55.60
45060;DHT22;30799;49.060;9.312;2023-02-01T06:50:55;20.90;55.60
45060;DHT22;30799;49.060;9.312;2023-02-01T06:53:22;20.90;55.90
45060;DHT22;30799;49.060;9.312;2023-02-01T06:55:59;20.90;55.40
45060;DHT22;30799;49.060;9.312;2023-02-01T06:58:30;20.90;55.50
45060;DHT22;30799;49.060;9.312;2023-02-01T07:00:57;20.80;55.50
45060;DHT22;30799;49.060;9.312;2023-02-01T07:03:24;20.80;55.20
45060;DHT22;30799;49.060;9.312;2023-02-01T07:05:55;20.80;55.20
45060;DHT22;30799;49.060;9.312;2023-02-01T07:08:23;20.80;55.20
45060;DHT22;30799;49.060;9.312;2023-02-01T07:10:49;20.80;55.20
45060;DHT22;30799;49.060;9.312;2023-02-01T07:13:16;20.80;55.30
45060;DHT22;30799;49.060;9.312;2023-02-01T07:15:43;20.80;55.00
45060;DHT22;30799;49.060;9.312;2023-02-01T07:18:09;20.80;55.00
45060;DHT22;30799;49.060;9.312;2023-02-01T07:20:36;20.80;55.00
45060;DHT22;30799;49.060;9.312;2023-02-01T07:23:02;20.70;55.00
45060;DHT22;30799;49.060;9.312;2023-02-01T07:25:29;20.80;55.00
45060;DHT22;30799;49.060;9.312;2023-02-01T07:27:56;20.70;54.90
45060;DHT22;30799;49.060;9.312;2023-02-01T07:30:22;20.70;54.80
45060;DHT22;30799;49.060;9.312;2023-02-01T07:32:49;20.70;54.70
45060;DHT22;30799;49.060;9.312;2023-02-01T07:35:16;20.70;54.80
45060;DHT22;30799;49.060;9.312;2023-02-01T07:37:43;20.70;54.70
45060;DHT22;30799;49.060;9.312;2023-02-01T07:40:10;20.70;54.50
45060;DHT22;30799;49.060;9.312;2023-02-01T07:42:37;20.70;54.70
45060;DHT22;30799;49.060;9.312;2023-02-01T07:45:04;20.70;54.60
45060;DHT22;30799;49.060;9.312;2023-02-01T07:47:46;20.70;54.30
45060;DHT22;30799;49.060;9.312;2023-02-01T07:50:13;20.70;54.40
45060;DHT22;30799;49.060;9.312;2023-02-01T07:52:40;20.70;55.00
45060;DHT22;30799;49.060;9.312;2023-02-01T07:55:07;20.70;54.20
45060;DHT22;30799;49.060;9.312;2023-02-01T07:57:34;20.60;54.20
45060;DHT22;30799;49.060;9.312;2023-02-01T08:00:01;20.70;54.20
45060;DHT22;30799;49.060;9.312;2023-02-01T08:02:46;20.70;54.20
45060;DHT22;30799;49.060;9.312;2023-02-01T08:05:13;20.60;54.10
45060;DHT22;30799;49.060;9.312;2023-02-01T08:07:39;20.60;54.00
45060;DHT22;30799;49.060;9.312;2023-02-01T08:10:06;20.70;54.00
45060;DHT22;30799;49.060;9.312;2023-02-01T08:12:37;20.60;54.00
45060;DHT22;30799;49.060;9.312;2023-02-01T08:15:04;20.60;54.10
45060;DHT22;30799;49.060;9.312;2023-02-01T08:17:31;20.60;54.00
45060;DHT22;30799;49.060;9.312;2023-02-01T08:19:57;20.60;54.00
45060;DHT22;30799;49.060;9.312;2023-02-01T08:22:24;20.60;53.90
45060;DHT22;30799;49.060;9.312;2023-02-01T08:24:51;20.60;53.80
45060;DHT22;30799;49.060;9.312;2023-02-01T08:27:18;20.60;53.80
45060;DHT22;30799;49.060;9.312;2023-02-01T08:29:44;20.60;53.80
45060;DHT22;30799;49.060;9.312;2023-02-01T08:32:11;20.50;53.80
45060;DHT22;30799;49.060;9.312;2023-02-01T08:34:38;20.60;53.90
45060;DHT22;30799;49.060;9.312;2023-02-01T08:37:04;20.60;53.80
45060;DHT22;30799;49.060;9.312;2023-02-01T08:39:31;20.60;53.80
45060;DHT22;30799;49.060;9.312;2023-02-01T08:41:58;20.50;53.60
45060;DHT22;30799;49.060;9.312;2023-02-01T08:44:43;20.50;53.50
45060;DHT22;30799;49.060;9.312;2023-02-01T08:47:09;20.50;53.60
45060;DHT22;30799;49.060;9.312;2023-02-01T08:49:37;20.60;53.50
45060;DHT22;30799;49.060;9.312;2023-02-01T08:52:03;20.50;53.40
45060;DHT22;30799;49.060;9.312;2023-02-01T08:54:40;20.50;53.50
45060;DHT22;30799;49.060;9.312;2023-02-01T08:57:08;20.50;53.50
45060;DHT22;30799;49.060;9.312;2023-02-01T08:59:36;20.50;53.40
45060;DHT22;30799;49.060;9.312;2023-02-01T09:02:02;20.50;53.40
45060;DHT22;30799;49.060;9.312;2023-02-01T09:04:29;20.50;53.40
45060;DHT22;30799;49.060;9.312;2023-02-01T09:06:56;20.50;53.30
45060;DHT22;30799;49.060;9.312;2023-02-01T09:09:23;20.50;53.30
45060;DHT22;30799;49.060;9.312;2023-02-01T09:11:50;20.50;53.20
45060;DHT22;30799;49.060;9.312;2023-02-01T09:14:17;20.50;53.20
45060;DHT22;30799;49.060;9.312;2023-02-01T09:16:44;20.50;53.40
45060;DHT22;30799;49.060;9.312;2023-02-01T09:19:10;20.50;53.30
45060;DHT22;30799;49.060;9.312;2023-02-01T09:21:52;20.50;53.20
45060;DHT22;30799;49.060;9.312;2023-02-01T09:24:18;20.50;53.10
45060;DHT22;30799;49.060;9.312;2023-02-01T09:26:45;20.50;53.10
45060;DHT22;30799;49.060;9.312;2023-02-01T09:29:12;20.50;53.00
45060;DHT22;30799;49.060;9.312;2023-02-01T09:31:42;20.50;53.00
45060;DHT22;30799;49.060;9.312;2023-02-01T09:34:23;20.50;53.00
45060;DHT22;30799;49.060;9.312;2023-02-01T09:36:50;20.40;52.90
45060;DHT22;30799;49.060;9.312;2023-02-01T09:39:16;20.50;52.90
45060;DHT22;30799;49.060;9.312;2023-02-01T09:47:18;20.40;52.70
45060;DHT22;30799;49.060;9.312;2023-02-01T09:50:02;20.40;52.70
45060;DHT22;30799;49.060;9.312;2023-02-01T09:52:36;20.40;52.70
45060;DHT22;30799;49.060;9.312;2023-02-01T09:55:14;20.40;52.50
45060;DHT22;30799;49.060;9.312;2023-02-01T09:57:53;20.40;52.50
45060;DHT22;30799;49.060;9.312;2023-02-01T10:00:30;20.40;52.50
45060;DHT22;30799;49.060;9.312;2023-02-01T10:03:00;20.40;52.50
45060;DHT22;30799;49.060;9.312;2023-02-01T10:10:57;20.40;52.30
45060;DHT22;30799;49.060;9.312;2023-02-01T10:13:44;20.40;52.10
45060;DHT22;30799;49.060;9.312;2023-02-01T10:16:13;20.40;52.10
45060;DHT22;30799;49.060;9.312;2023-02-01T10:19:10;20.40;52.00
45060;DHT22;30799;49.060;9.312;2023-02-01T10:21:51;20.40;52.00
45060;DHT22;30799;49.060;9.312;2023-02-01T10:24:46;20.40;51.90
45060;DHT22;30799;49.060;9.312;2023-02-01T10:27:18;20.40;51.80
45060;DHT22;30799;49.060;9.312;2023-02-01T10:29:59;20.30;51.70
45060;DHT22;30799;49.060;9.312;2023-02-01T10:32:34;20.30;51.70
45060;DHT22;30799;49.060;9.312;2023-02-01T10:35:13;20.30;51.60
45060;DHT22;30799;49.060;9.312;2023-02-01T10:37:41;20.30;51.50
45060;DHT22;30799;49.060;9.312;2023-02-01T10:40:26;20.30;51.40
45060;DHT22;30799;49.060;9.312;2023-02-01T10:42:59;20.30;51.30
45060;DHT22;30799;49.060;9.312;2023-02-01T10:45:28;20.30;51.20
45060;DHT22;30799;49.060;9.312;2023-02-01T10:47:57;20.30;51.10
45060;DHT22;30799;49.060;9.312;2023-02-01T10:50:49;20.30;51.10
45060;DHT22;30799;49.060;9.312;2023-02-01T10:56:08;20.30;50.80
45060;DHT22;30799;49.060;9.312;2023-02-01T10:58:42;20.30;50.80
45060;DHT22;30799;49.060;9.312;2023-02-01T11:01:24;20.30;50.80
45060;DHT22;30799;49.060;9.312;2023-02-01T11:03:59;20.30;50.80
45060;DHT22;30799;49.060;9.312;2023-02-01T11:06:33;20.30;50.70
45060;DHT22;30799;49.060;9.312;2023-02-01T11:11:54;20.20;50.60
45060;DHT22;30799;49.060;9.312;2023-02-01T11:14:41;20.20;50.50
45060;DHT22;30799;49.060;9.312;2023-02-01T11:19:51;20.20;51.10
45060;DHT22;30799;49.060;9.312;2023-02-01T11:22:25;20.20;50.50
45060;DHT22;30799;49.060;9.312;2023-02-01T11:24:53;20.20;50.40
45060;DHT22;30799;49.060;9.312;2023-02-01T11:27:21;20.20;50.30
45060;DHT22;30799;49.060;9.312;2023-02-01T11:29:58;20.20;50.30
45060;DHT22;30799;49.060;9.312;2023-02-01T11:32:26;20.20;50.20
45060;DHT22;30799;49.060;9.312;2023-02-01T11:35:16;20.20;50.20
45060;DHT22;30799;49.060;9.312;2023-02-01T11:37:44;20.20;50.10
45060;DHT22;30799;49.060;9.312;2023-02-01T11:43:00;20.20;50.00
45060;DHT22;30799;49.060;9.312;2023-02-01T11:45:29;20.20;50.10
45060;DHT22;30799;49.060;9.312;2023-02-01T11:47:58;20.20;50.00
45060;DHT22;30799;49.060;9.312;2023-02-01T11:53:12;20.20;50.70
45060;DHT22;30799;49.060;9.312;2023-02-01T11:56:00;20.20;50.10
45060;DHT22;30799;49.060;9.312;2023-02-01T11:58:51;20.20;50.10
45060;DHT22;30799;49.060;9.312;2023-02-01T12:01:50;20.20;50.10
45060;DHT22;30799;49.060;9.312;2023-02-01T12:13:16;20.20;50.00
45060;DHT22;30799;49.060;9.312;2023-02-01T12:19:01;20.20;49.80
45060;DHT22;30799;49.060;9.312;2023-02-01T12:24:33;20.20;49.80
45060;DHT22;30799;49.060;9.312;2023-02-01T12:27:54;20.20;49.80
45060;DHT22;30799;49.060;9.312;2023-02-01T12:33:34;20.20;49.60
45060;DHT22;30799;49.060;9.312;2023-02-01T12:38:56;20.20;49.40
45060;DHT22;30799;49.060;9.312;2023-02-01T12:41:39;20.10;49.30
45060;DHT22;30799;49.060;9.312;2023-02-01T12:44:32;20.10;49.30
45060;DHT22;30799;49.060;9.312;2023-02-01T12:49:45;20.10;49.20
45060;DHT22;30799;49.060;9.312;2023-02-01T12:52:49;20.10;49.20
45060;DHT22;30799;49.060;9.312;2023-02-01T12:57:51;20.10;49.10
45060;DHT22;30799;49.060;9.312;2023-02-01T13:00:46;20.10;49.10
45060;DHT22;30799;49.060;9.312;2023-02-01T13:03:34;20.10;49.10
45060;DHT22;30799;49.060;9.312;2023-02-01T13:06:08;20.10;49.10
45060;DHT22;30799;49.060;9.312;2023-02-01T13:08:52;20.10;49.00
45060;DHT22;30799;49.060;9.312;2023-02-01T13:11:30;20.10;49.00
45060;DHT22;30799;49.060;9.312;2023-02-01T13:17:04;20.10;48.90
45060;DHT22;30799;49.060;9.312;2023-02-01T13:19:57;20.10;48.90
45060;DHT22;30799;49.060;9.312;2023-02-01T13:22:32;20.10;48.90
45060;DHT22;30799;49.060;9.312;2023-02-01T13:25:34;20.10;48.80
45060;DHT22;30799;49.060;9.312;2023-02-01T13:28:03;20.10;48.80
45060;DHT22;30799;49.060;9.312;2023-02-01T13:30:51;20.10;48.80
45060;DHT22;30799;49.060;9.312;2023-02-01T13:39:20;20.10;48.70
45060;DHT22;30799;49.060;9.312;2023-02-01T13:41:58;20.10;48.70
45060;DHT22;30799;49.060;9.312;2023-02-01T13:44:38;20.10;48.70
45060;DHT22;30799;49.060;9.312;2023-02-01T13:47:18;20.10;48.70
45060;DHT22;30799;49.060;9.312;2023-02-01T13:49:47;20.10;48.70
45060;DHT22;30799;49.060;9.312;2023-02-01T13:52:37;20.10;48.60
45060;DHT22;30799;49.060;9.312;2023-02-01T13:55:14;20.10;48.70
45060;DHT22;30799;49.060;9.312;2023-02-01T13:57:42;20.10;48.70
45060;DHT22;30799;49.060;9.312;2023-02-01T14:10:48;20.10;48.80
45060;DHT22;30799;49.060;9.312;2023-02-01T14:13:37;20.10;48.70
45060;DHT22;30799;49.060;9.312;2023-02-01T14:21:31;20.10;48.70
45060;DHT22;30799;49.060;9.312;2023-02-01T14:24:04;20.10;48.70
45060;DHT22;30799;49.060;9.312;2023-02-01T14:26:50;20.10;48.70
45060;DHT22;30799;49.060;9.312;2023-02-01T14:42:26;20.10;48.60
45060;DHT22;30799;49.060;9.312;2023-02-01T14:45:45;20.10;48.60
45060;DHT22;30799;49.060;9.312;2023-02-01T14:47:42;20.10;48.50
45060;DHT22;30799;49.060;9.312;2023-02-01T15:01:34;20.10;48.40
45060;DHT22;30799;49.060;9.312;2023-02-01T15:04:03;20.00;48.30
45060;DHT22;30799;49.060;9.312;2023-02-01T15:06:40;20.00;48.30
45060;DHT22;30799;49.060;9.312;2023-02-01T15:09:14;20.00;48.30
45060;DHT22;30799;49.060;9.312;2023-02-01T15:14:42;20.00;48.30
45060;DHT22;30799;49.060;9.312;2023-02-01T15:17:24;20.00;48.30
45060;DHT22;30799;49.060;9.312;2023-02-01T15:19:59;20.10;48.30
45060;DHT22;30799;49.060;9.312;2023-02-01T15:22:28;20.00;48.30
45060;DHT22;30799;49.060;9.312;2023-02-01T15:24:57;20.00;48.30
45060;DHT22;30799;49.060;9.312;2023-02-01T15:27:24;20.10;48.40
45060;DHT22;30799;49.060;9.312;2023-02-01T15:29:51;20.00;48.30
45060;DHT22;30799;49.060;9.312;2023-02-01T15:32:33;20.00;48.30
45060;DHT22;30799;49.060;9.312;2023-02-01T15:35:00;20.10;48.40
45060;DHT22;30799;49.060;9.312;2023-02-01T15:37:28;20.10;48.40
45060;DHT22;30799;49.060;9.312;2023-02-01T15:42:54;20.00;48.20
45060;DHT22;30799;49.060;9.312;2023-02-01T15:45:26;20.00;48.30
45060;DHT22;30799;49.060;9.312;2023-02-01T15:47:56;20.00;48.30
45060;DHT22;30799;49.060;9.312;2023-02-01T15:50:23;20.00;48.30
45060;DHT22;30799;49.060;9.312;2023-02-01T15:52:53;20.00;48.30
45060;DHT22;30799;49.060;9.312;2023-02-01T15:55:25;20.00;48.30
45060;DHT22;30799;49.060;9.312;2023-02-01T15:57:56;20.00;48.30
45060;DHT22;30799;49.060;9.312;2023-02-01T16:03:05;20.00;48.30
45060;DHT22;30799;49.060;9.312;2023-02-01T16:05:57;20.00;48.30
45060;DHT22;30799;49.060;9.312;2023-02-01T16:08:27;20.00;48.30
45060;DHT22;30799;49.060;9.312;2023-02-01T16:11:00;20.00;48.30
45060;DHT22;30799;49.060;9.312;2023-02-01T16:13:28;20.00;48.30
45060;DHT22;30799;49.060;9.312;2023-02-01T16:15:55;20.00;48.30
45060;DHT22;30799;49.060;9.312;2023-02-01T16:18:21;20.00;48.30
45060;DHT22;30799;49.060;9.312;2023-02-01T16:20:48;20.00;48.30
45060;DHT22;30799;49.060;9.312;2023-02-01T16:23:15;20.00;48.30
45060;DHT22;30799;49.060;9.312;2023-02-01T16:25:42;20.00;48.30
45060;DHT22;30799;49.060;9.312;2023-02-01T16:28:09;18.90;42.60
45060;DHT22;30799;49.060;9.312;2023-02-01T16:30:36;18.00;43.30
45060;DHT22;30799;49.060;9.312;2023-02-01T16:33:03;18.00;47.40
45060;DHT22;30799;49.060;9.312;2023-02-01T16:35:33;18.80;50.70
45060;DHT22;30799;49.060;9.312;2023-02-01T16:40:57;19.40;47.60
45060;DHT22;30799;49.060;9.312;2023-02-01T16:43:25;19.70;47.00
45060;DHT22;30799;49.060;9.312;2023-02-01T16:45:54;19.80;47.00
45060;DHT22;30799;49.060;9.312;2023-02-01T16:48:33;19.80;47.00
45060;DHT22;30799;49.060;9.312;2023-02-01T16:51:03;19.90;46.90
45060;DHT22;30799;49.060;9.312;2023-02-01T16:53:33;19.90;47.20
45060;DHT22;30799;49.060;9.312;2023-02-01T16:56:19;19.90;47.30
45060;DHT22;30799;49.060;9.312;2023-02-01T16:58:47;20.00;47.10
45060;DHT22;30799;49.060;9.312;2023-02-01T17:01:16;20.10;47.20
45060;DHT22;30799;49.060;9.312;2023-02-01T17:03:44;20.10;47.20
45060;DHT22;30799;49.060;9.312;2023-02-01T17:06:19;20.10;47.40
45060;DHT22;30799;49.060;9.312;2023-02-01T17:08:50;20.20;47.40
45060;DHT22;30799;49.060;9.312;2023-02-01T17:11:18;20.20;47.30
45060;DHT22;30799;49.060;9.312;2023-02-01T17:13:44;20.20;47.30
45060;DHT22;30799;49.060;9.312;2023-02-01T17:18:57;20.20;47.50
45060;DHT22;30799;49.060;9.312;2023-02-01T17:21:27;20.20;47.60
45060;DHT22;30799;49.060;9.312;2023-02-01T17:23:55;20.30;47.70
45060;DHT22;30799;49.060;9.312;2023-02-01T17:26:24;20.30;47.80
45060;DHT22;30799;49.060;9.312;2023-02-01T17:28:50;20.30;47.80
45060;DHT22;30799;49.060;9.312;2023-02-01T17:31:17;20.30;47.20
45060;DHT22;30799;49.060;9.312;2023-02-01T17:33:44;20.30;47.90
45060;DHT22;30799;49.060;9.312;2023-02-01T17:36:13;20.30;47.80
45060;DHT22;30799;49.060;9.312;2023-02-01T17:38:41;20.30;48.00
45060;DHT22;30799;49.060;9.312;2023-02-01T17:41:12;20.40;48.00
45060;DHT22;30799;49.060;9.312;2023-02-01T17:43:39;20.40;48.00
45060;DHT22;30799;49.060;9.312;2023-02-01T17:46:14;20.40;47.90
45060;DHT22;30799;49.060;9.312;2023-02-01T17:48:41;20.40;48.00
45060;DHT22;30799;49.060;9.312;2023-02-01T17:51:24;20.40;48.20
45060;DHT22;30799;49.060;9.312;2023-02-01T17:53:53;20.40;48.00
45060;DHT22;30799;49.060;9.312;2023-02-01T17:56:22;20.40;48.00
45060;DHT22;30799;49.060;9.312;2023-02-01T17:58:49;20.40;48.00
45060;DHT22;30799;49.060;9.312;2023-02-01T18:01:20;20.40;48.10
45060;DHT22;30799;49.060;9.312;2023-02-01T18:03:47;20.40;48.10
45060;DHT22;30799;49.060;9.312;2023-02-01T18:06:23;20.40;48.10
45060;DHT22;30799;49.060;9.312;2023-02-01T18:08:52;20.40;48.20
45060;DHT22;30799;49.060;9.312;2023-02-01T18:11:22;20.40;48.20
45060;DHT22;30799;49.060;9.312;2023-02-01T18:13:50;20.40;48.30
45060;DHT22;30799;49.060;9.312;2023-02-01T18:16:23;20.40;48.30